Time;durP1;ratioP1;P1;durP2;ratioP2;P2;SDS_P1;SDS_P2;PMS_P1;PMS_P2;Temp;Humidity;BMP_temperature;BMP_pressure;BME280_temperature;BME280_humidity;BME280_pressure;Samples;Min_cycle;Max_cycle;Signal;HPM_P1;HPM_P2
2021/01/27 00:03:14;;;;;;;27.87;18.43;;;;;;;-1.17;82.90;98845.25;509250;1105;114004;-66
2021/01/27 00:13:20;;;;;;;31.50;20.63;;;;;;;-1.15;83.27;98847.79;509212;1105;113908;-66
2021/01/27 00:23:26;;;;;;;27.33;19.07;;;;;;;-1.14;82.64;98839.17;509488;1104;113983;-65
2021/01/27 00:33:36;;;;;;;32.93;20.80;;;;;;;-1.09;82.75;98837.30;509147;1105;114157;-66
2021/01/27 00:43:44;;;;;;;30.33;20.80;;;;;;;-1.07;82.47;98840.66;509143;1103;113999;-65
2021/01/27 00:53:48;;;;;;;;;;;;;;;-1.03;83.56;98836.27;509412;1104;113915;-66
2021/01/27 01:03:52;;;;;;;30.83;20.23;;;;;;;-1.05;82.65;98833.73;509513;1105;99741;-65
2021/01/27 01:13:56;;;;;;;30.97;20.07;;;;;;;-1.00;83.40;98820.72;509349;1105;114180;-66
2021/01/27 01:24:00;;;;;;;21.93;15.90;;;;;;;-0.98;82.97;98831.85;509289;1105;114174;-65
2021/01/27 01:34:04;;;;;;;24.33;14.17;;;;;;;-1.04;83.63;98838.02;509224;1103;114426;-65
2021/01/27 01:44:08;;;;;;;28.50;18.60;;;;;;;-1.00;83.48;98842.19;509097;1103;113979;-66
2021/01/27 01:54:19;;;;;;;23.27;16.00;;;;;;;-0.93;83.64;98840.28;509399;1103;114273;-66
2021/01/27 02:04:28;;;;;;;24.13;15.97;;;;;;;-0.90;83.44;98832.45;509300;1105;113906;-65
2021/01/27 02:14:57;;;;;;;20.07;15.20;;;;;;;-0.88;82.97;98827.26;509756;1104;113903;-68
2021/01/27 02:25:41;;;;;;;19.53;13.53;;;;;;;-0.87;83.02;98837.50;509108;1105;114321;-67
2021/01/27 02:35:52;;;;;;;19.35;12.95;;;;;;;-0.85;83.59;98840.05;508827;1105;114980;-66
2021/01/27 02:46:01;;;;;;;17.83;13.30;;;;;;;-0.83;82.71;98837.44;509164;1105;114435;-65
2021/01/27 02:56:18;;;;;;;18.77;11.50;;;;;;;-0.84;83.35;98849.47;509347;1103;113941;-66
2021/01/27 03:06:23;;;;;;;18.42;11.55;;;;;;;-0.83;82.79;98850.33;509260;1104;114914;-66
2021/01/27 03:16:33;;;;;;;15.07;11.13;;;;;;;-0.87;82.41;98850.39;509124;1105;114489;-65
2021/01/27 03:26:46;;;;;;;16.27;10.57;;;;;;;-0.88;83.23;98855.61;509308;1103;114127;-66
2021/01/27 03:37:03;;;;;;;13.03;9.37;;;;;;;-0.88;82.65;98863.34;509218;1105;114238;-65
2021/01/27 03:47:14;;;;;;;14.40;9.97;;;;;;;-0.94;82.83;98855.77;509194;1103;114798;-65
2021/01/27 03:57:26;;;;;;;16.37;11.03;;;;;;;-0.99;82.03;98859.34;509187;1103;113731;-66
2021/01/27 04:07:30;;;;;;;15.47;9.87;;;;;;;-1.00;81.46;98873.12;509067;1105;114331;-66
2021/01/27 04:17:34;;;;;;;11.97;7.77;;;;;;;-1.01;82.13;98884.31;509226;1103;113731;-65
2021/01/27 04:27:38;;;;;;;12.87;7.73;;;;;;;-1.02;81.08;98885.20;509444;1103;114036;-66
2021/01/27 04:37:45;;;;;;;7.45;5.20;;;;;;;-1.07;80.34;98881.89;509121;1104;113750;-66
2021/01/27 04:47:57;;;;;;;7.67;6.03;;;;;;;-1.11;80.78;98888.03;508955;1105;114174;-65
2021/01/27 04:58:15;;;;;;;9.80;6.83;;;;;;;-1.09;80.84;98883.67;509106;1104;114548;-65
2021/01/27 05:08:25;;;;;;;7.33;5.73;;;;;;;-1.06;80.04;98887.91;509092;1103;113775;-66
2021/01/27 05:18:29;;;;;;;8.23;5.60;;;;;;;-1.12;80.19;98886.34;509053;1105;113671;-65
2021/01/27 05:28:38;;;;;;;8.45;5.20;;;;;;;-1.19;79.77;98890.83;509142;1105;113643;-66
2021/01/27 05:38:45;;;;;;;7.60;6.00;;;;;;;-1.23;79.43;98894.34;509253;1105;113573;-66
2021/01/27 05:48:49;;;;;;;;;;;;;;;-1.28;79.76;98901.37;508966;1103;113539;-65
2021/01/27 05:59:00;;;;;;;5.57;4.53;;;;;;;-1.31;79.97;98906.61;509229;1105;100002;-67
2021/01/27 06:09:06;;;;;;;7.37;5.40;;;;;;;-1.31;79.64;98915.17;509044;1105;113605;-71
2021/01/27 06:19:18;;;;;;;10.23;6.37;;;;;;;-1.29;79.82;98908.23;509022;1105;114389;-71
2021/01/27 06:29:32;;;;;;;6.90;5.45;;;;;;;-1.27;80.04;98918.52;508913;1103;114408;-71
2021/01/27 06:39:58;;;;;;;7.75;5.95;;;;;;;-1.24;79.56;98925.33;509048;1105;113843;-71
2021/01/27 06:50:27;;;;;;;7.57;5.70;;;;;;;-1.23;79.40;98930.41;508981;1103;115056;-71
2021/01/27 07:00:41;;;;;;;12.70;6.93;;;;;;;-1.19;79.79;98933.77;508954;1105;114386;-72
2021/01/27 07:11:17;;;;;;;11.30;6.47;;;;;;;-1.10;79.70;98941.25;508781;1103;113860;-71
2021/01/27 07:21:31;;;;;;;10.43;6.57;;;;;;;-1.07;79.50;98940.34;508727;1103;114718;-63
2021/01/27 07:31:41;;;;;;;9.23;7.13;;;;;;;-1.09;79.36;98948.09;508400;1103;114027;-64
2021/01/27 07:42:06;;;;;;;11.50;8.37;;;;;;;-1.03;79.09;98953.10;508866;1103;114315;-64
2021/01/27 07:52:18;;;;;;;12.20;7.35;;;;;;;-0.94;79.39;98948.56;508848;1105;114053;-63
2021/01/27 08:02:28;;;;;;;11.07;7.47;;;;;;;-0.88;78.96;98959.55;508837;1105;114142;-64
2021/01/27 08:12:41;;;;;;;8.53;6.57;;;;;;;-0.80;80.00;98968.81;508775;1105;114023;-64
2021/01/27 08:22:52;;;;;;;7.20;6.47;;;;;;;-0.75;79.21;98972.95;508803;1104;114018;-67
2021/01/27 08:33:36;;;;;;;9.20;7.27;;;;;;;-0.71;78.76;98969.39;508539;1104;113979;-64
2021/01/27 08:43:52;;;;;;;9.73;7.77;;;;;;;-0.56;79.52;98985.35;509103;1104;113873;-69
2021/01/27 08:53:57;;;;;;;8.27;7.10;;;;;;;-0.43;79.31;98990.98;509194;1105;113862;-62
2021/01/27 09:04:03;;;;;;;11.10;8.10;;;;;;;-0.37;77.73;98988.25;509124;1103;114024;-61
2021/01/27 09:14:18;;;;;;;9.17;7.20;;;;;;;-0.38;78.19;98986.56;509279;1103;113969;-62
2021/01/27 09:24:26;;;;;;;11.97;8.53;;;;;;;-0.20;77.77;98995.49;508965;1103;114286;-64
2021/01/27 09:34:32;;;;;;;8.03;6.97;;;;;;;-0.22;78.27;98993.84;508955;1105;114031;-67
2021/01/27 09:44:38;;;;;;;9.83;7.30;;;;;;;-0.14;77.76;98991.89;509144;1105;113836;-65
2021/01/27 09:54:45;;;;;;;9.37;7.67;;;;;;;-0.10;77.74;98998.64;509092;1104;114105;-64
2021/01/27 10:04:50;;;;;;;11.53;7.43;;;;;;;0.03;78.24;98987.94;508682;1105;113770;-63
2021/01/27 10:15:09;;;;;;;10.80;7.40;;;;;;;0.31;77.39;98987.93;508972;1103;113819;-61
2021/01/27 10:25:32;;;;;;;10.27;7.00;;;;;;;0.39;77.27;98985.95;508947;1105;113791;-63
2021/01/27 10:35:36;;;;;;;11.35;8.20;;;;;;;0.46;76.25;98991.77;509210;1103;114344;-60
2021/01/27 10:45:44;;;;;;;10.27;7.83;;;;;;;0.68;76.12;98991.07;509059;1103;114359;-59
2021/01/27 10:55:55;;;;;;;9.80;8.30;;;;;;;0.88;75.69;98986.98;509073;1103;113742;-60
2021/01/27 11:05:59;;;;;;;8.87;6.23;;;;;;;1.05;74.77;98981.23;509240;1103;114055;-62
2021/01/27 11:16:06;;;;;;;9.70;7.20;;;;;;;1.23;75.14;98972.81;509034;1103;113734;-59
2021/01/27 11:26:11;;;;;;;8.10;5.67;;;;;;;1.60;73.71;98970.63;509045;1105;114252;-61
2021/01/27 11:36:19;;;;;;;5.33;3.50;;;;;;;1.24;70.96;98968.49;509076;1104;115299;-63
2021/01/27 11:46:27;;;;;;;5.27;3.83;;;;;;;1.10;71.61;98980.17;511575;1093;114201;-61
2021/01/27 11:56:37;;;;;;;3.85;2.70;;;;;;;0.82;70.58;98975.94;508761;1103;113860;-60
2021/01/27 12:06:43;;;;;;;5.73;3.30;;;;;;;0.65;70.29;98983.42;509096;1105;114663;-59
2021/01/27 12:16:48;;;;;;;3.57;3.27;;;;;;;0.35;70.23;98975.77;508993;1105;114557;-58
2021/01/27 12:27:12;;;;;;;8.30;4.10;;;;;;;0.46;71.32;98980.58;508851;1105;114200;-62
2021/01/27 12:37:20;;;;;;;6.80;4.23;;;;;;;0.29;69.00;98987.14;508848;1105;113668;-63
2021/01/27 12:47:24;;;;;;;5.93;5.23;;;;;;;0.07;70.00;98992.97;509018;1105;113582;-61
2021/01/27 12:57:28;;;;;;;8.90;6.20;;;;;;;-0.04;70.87;99006.21;508906;1104;113790;-60
2021/01/27 13:07:32;;;;;;;25.33;6.67;;;;;;;0.16;72.28;99009.91;509304;1105;114736;-61
2021/01/27 13:17:36;;;;;;;8.70;5.90;;;;;;;0.27;72.01;99010.42;509302;1105;113922;-60
2021/01/27 13:27:41;;;;;;;7.97;5.47;;;;;;;0.31;72.32;99018.92;509367;1105;113714;-63
2021/01/27 13:37:46;;;;;;;11.43;6.20;;;;;;;0.33;71.55;99009.38;508944;1105;113593;-60
2021/01/27 13:47:50;;;;;;;8.97;6.43;;;;;;;0.46;71.07;99014.16;509328;1105;113831;-60
2021/01/27 13:57:54;;;;;;;5.70;4.67;;;;;;;0.67;71.03;99010.05;509336;1105;113553;-61
2021/01/27 14:07:58;;;;;;;7.03;4.23;;;;;;;0.64;71.20;99002.41;509045;1105;114710;-60
2021/01/27 14:18:03;;;;;;;7.23;4.43;;;;;;;0.66;71.32;99006.61;508983;1105;114118;-60
2021/01/27 14:28:07;;;;;;;6.70;5.10;;;;;;;0.56;72.17;99018.14;509797;1105;114193;-61
2021/01/27 14:38:15;;;;;;;12.40;6.80;;;;;;;0.46;72.36;99025.34;508920;1105;113614;-60
2021/01/27 14:48:19;;;;;;;9.07;5.40;;;;;;;0.29;73.02;99020.71;511256;1102;115014;-61
2021/01/27 14:58:23;;;;;;;7.83;5.17;;;;;;;0.12;72.86;99031.55;510679;1102;114136;-60
2021/01/27 15:08:27;;;;;;;7.47;5.17;;;;;;;0.01;73.12;99031.89;510951;1102;114443;-60
2021/01/27 15:18:31;;;;;;;12.47;6.07;;;;;;;-0.01;73.91;99042.25;511200;1102;114095;-61
2021/01/27 15:28:35;;;;;;;8.87;5.90;;;;;;;-0.08;73.66;99032.98;511200;1102;114705;-61
2021/01/27 15:38:39;;;;;;;9.57;7.77;;;;;;;-0.21;74.93;99026.49;511097;1102;114328;-62
2021/01/27 15:48:43;;;;;;;10.87;7.10;;;;;;;-0.31;75.46;99031.91;511406;1102;114029;-61
2021/01/27 15:58:48;;;;;;;11.57;7.97;;;;;;;-0.35;75.57;99034.63;511337;1102;113958;-60
2021/01/27 16:08:52;;;;;;;14.93;8.80;;;;;;;-0.36;75.20;99038.09;511322;1102;113956;-61
2021/01/27 16:18:57;;;;;;;12.03;7.77;;;;;;;-0.38;75.47;99045.89;502532;1102;10001884;-64
2021/01/27 16:29:00;;;;;;;14.00;8.80;;;;;;;-0.37;75.72;99045.00;510421;1102;115697;-59
2021/01/27 16:39:05;;;;;;;18.57;12.03;;;;;;;-0.34;76.33;99052.64;510043;1102;114019;-63
2021/01/27 16:49:09;;;;;;;20.17;13.03;;;;;;;-0.36;76.74;99036.38;510672;1102;114091;-61
2021/01/27 16:59:13;;;;;;;22.90;15.13;;;;;;;-0.35;76.15;99042.36;510540;1102;114569;-62
2021/01/27 17:09:18;;;;;;;25.70;16.07;;;;;;;-0.31;76.33;99043.98;510451;1102;114887;-61
2021/01/27 17:19:22;;;;;;;22.40;14.90;;;;;;;-0.23;77.46;99041.18;510278;1100;114715;-62
2021/01/27 17:29:26;;;;;;;38.90;22.37;;;;;;;-0.30;76.37;99041.34;510444;1102;114622;-62
2021/01/27 17:39:30;;;;;;;35.67;18.43;;;;;;;-0.28;77.19;99049.05;509898;1102;114379;-63
2021/01/27 17:49:34;;;;;;;61.83;25.50;;;;;;;-0.27;77.17;99045.58;510431;1102;114129;-61
2021/01/27 17:59:38;;;;;;;29.33;14.90;;;;;;;-0.25;76.43;99046.38;511091;1100;114752;-60
2021/01/27 18:09:42;;;;;;;20.67;12.87;;;;;;;-0.21;76.44;99045.42;510532;1102;114222;-61
2021/01/27 18:19:46;;;;;;;22.60;13.33;;;;;;;-0.16;76.62;99037.55;510469;1101;114059;-58
2021/01/27 18:29:50;;;;;;;20.33;11.80;;;;;;;-0.25;75.90;99030.89;510503;1102;114512;-61
2021/01/27 18:39:54;;;;;;;14.63;9.73;;;;;;;-0.27;76.65;99024.94;510389;1102;115044;-60
2021/01/27 18:49:58;;;;;;;14.80;8.67;;;;;;;-0.29;76.57;99030.16;510190;1101;113912;-64
2021/01/27 19:00:05;;;;;;;13.03;7.77;;;;;;;-0.28;75.70;99025.83;510809;1102;113977;-64
2021/01/27 19:10:13;;;;;;;;;;;;;;;-0.27;76.45;99027.52;510569;1102;114887;-60
2021/01/27 19:20:19;;;;;;;12.53;6.93;;;;;;;-0.29;76.13;99030.16;510579;1101;100132;-61
2021/01/27 19:30:25;;;;;;;11.17;6.80;;;;;;;-0.34;75.54;99021.69;510455;1102;114409;-61
2021/01/27 19:40:30;;;;;;;10.65;7.10;;;;;;;-0.41;76.26;99016.75;510570;1101;114173;-61
2021/01/27 19:50:36;;;;;;;13.30;8.23;;;;;;;-0.53;76.38;99013.62;510460;1102;114629;-61
2021/01/27 20:00:40;;;;;;;14.00;8.47;;;;;;;-0.62;76.37;99019.03;510182;1102;114793;-62
2021/01/27 20:10:44;;;;;;;14.43;8.93;;;;;;;-0.67;76.14;99028.64;510362;1102;113996;-60
2021/01/27 20:20:49;;;;;;;14.77;8.87;;;;;;;-0.71;75.67;99023.55;510511;1102;114278;-61
2021/01/27 20:30:55;;;;;;;15.93;10.67;;;;;;;-0.73;76.42;99017.59;510365;1102;114873;-60
2021/01/27 20:41:01;;;;;;;16.35;9.30;;;;;;;-0.75;75.49;99018.50;510289;1102;114806;-60
2021/01/27 20:51:05;;;;;;;20.80;9.60;;;;;;;-0.74;75.93;99020.23;510232;1102;115134;-61
2021/01/27 21:01:10;;;;;;;18.10;10.80;;;;;;;-0.75;76.46;99024.52;510137;1102;114630;-61
2021/01/27 21:11:15;;;;;;;18.70;10.10;;;;;;;-0.73;76.19;99024.49;510288;1102;114209;-61
2021/01/27 21:21:19;;;;;;;15.80;9.83;;;;;;;-0.76;76.44;99029.71;510734;1102;114941;-61
2021/01/27 21:31:24;;;;;;;24.30;10.75;;;;;;;-0.76;76.27;99040.88;510407;1102;115686;-60
2021/01/27 21:41:28;;;;;;;18.20;10.03;;;;;;;-0.82;75.91;99048.77;510230;1102;114930;-66
2021/01/27 21:51:32;;;;;;;21.12;11.70;;;;;;;-0.86;76.24;99050.60;510945;1102;114745;-66
2021/01/27 22:01:36;;;;;;;21.67;12.07;;;;;;;-0.91;76.11;99057.59;509997;1102;115527;-62
2021/01/27 22:11:40;;;;;;;16.37;9.77;;;;;;;-1.07;75.86;99046.82;510975;1102;115133;-62
2021/01/27 22:21:44;;;;;;;16.20;8.43;;;;;;;-1.14;75.62;99040.97;511044;1101;114914;-61
2021/01/27 22:31:48;;;;;;;15.53;7.47;;;;;;;-1.10;76.31;99036.59;510756;1102;114983;-67
2021/01/27 22:41:53;;;;;;;11.73;7.10;;;;;;;-1.07;75.51;99033.11;510519;1102;114100;-67
2021/01/27 22:51:56;;;;;;;11.03;5.60;;;;;;;-0.94;74.55;99031.04;510947;1101;114683;-66
2021/01/27 23:02:00;;;;;;;9.37;5.13;;;;;;;-0.89;74.15;99026.63;510592;1102;115760;-68
2021/01/27 23:12:06;;;;;;;8.83;4.87;;;;;;;-0.86;73.87;99026.54;510690;1101;114948;-66
2021/01/27 23:22:10;;;;;;;6.53;4.30;;;;;;;-0.86;73.30;99018.80;510525;1101;114628;-66
2021/01/27 23:32:14;;;;;;;6.40;3.27;;;;;;;-0.87;73.70;99004.23;510652;1102;113835;-66
2021/01/27 23:42:18;;;;;;;5.63;3.67;;;;;;;-0.96;73.31;98994.16;510625;1102;113742;-66
2021/01/27 23:52:22;;;;;;;5.87;3.73;;;;;;;-1.04;73.98;98987.49;510283;1102;113924;-67
